createdAt,value
2022-07-31T00:01:30.130Z,11.18
2022-07-31T00:03:39.600Z,10.82
2022-07-31T00:05:51.036Z,11.68
2022-07-31T00:07:59.009Z,11.55
2022-07-31T00:10:08.127Z,10.90
2022-07-31T00:12:17.716Z,11.05
2022-07-31T00:14:26.255Z,11.48
2022-07-31T00:16:34.248Z,12.90
2022-07-31T00:18:42.444Z,13.27
2022-07-31T00:20:53.384Z,13.05
2022-07-31T00:23:01.589Z,13.23
2022-07-31T00:25:11.512Z,12.75
2022-07-31T00:27:19.634Z,11.27
2022-07-31T00:29:28.161Z,12.65
2022-07-31T00:31:36.697Z,13.18
2022-07-31T00:33:47.126Z,12.38
2022-07-31T00:35:57.993Z,12.07
2022-07-31T00:38:26.189Z,13.15
2022-07-31T00:40:34.783Z,13.20
2022-07-31T00:42:43.416Z,12.98
2022-07-31T00:44:52.115Z,13.93
2022-07-31T00:47:01.744Z,13.77
2022-07-31T00:49:10.929Z,14.80
2022-07-31T00:51:22.172Z,13.27
2022-07-31T00:53:31.083Z,14.15
2022-07-31T00:55:51.284Z,12.95
2022-07-31T00:58:01.431Z,12.27
2022-07-31T01:00:10.934Z,12.55
2022-07-31T01:02:19.546Z,12.23
2022-07-31T01:04:28.370Z,12.80
2022-07-31T01:06:42.836Z,12.80
2022-07-31T01:08:51.272Z,11.80
2022-07-31T01:11:05.613Z,14.25
2022-07-31T01:13:28.890Z,14.07
2022-07-31T01:15:49.374Z,14.18
2022-07-31T01:18:00.102Z,12.65
2022-07-31T01:20:09.469Z,12.85
2022-07-31T01:22:43.691Z,13.82
2022-07-31T01:25:05.177Z,13.80
2022-07-31T01:27:49.673Z,12.38
2022-07-31T01:30:06.237Z,13.23
2022-07-31T01:32:21.742Z,12.77
2022-07-31T01:34:43.269Z,11.60
2022-07-31T01:37:02.302Z,11.30
2022-07-31T01:39:10.905Z,12.75
2022-07-31T01:41:24.276Z,12.38
2022-07-31T01:43:38.061Z,13.25
2022-07-31T01:45:54.022Z,12.05
2022-07-31T01:48:04.105Z,11.65
2022-07-31T01:50:41.876Z,11.95
2022-07-31T01:52:47.802Z,11.10
2022-07-31T01:55:00.382Z,13.50
2022-07-31T01:57:10.710Z,12.20
2022-07-31T01:59:24.998Z,10.93
2022-07-31T02:01:52.555Z,11.10
2022-07-31T02:04:02.605Z,10.43
2022-07-31T02:06:13.267Z,11.85
2022-07-31T02:08:23.386Z,11.95
2022-07-31T02:10:36.303Z,11.30
2022-07-31T02:12:46.353Z,10.20
2022-07-31T02:14:56.580Z,10.93
2022-07-31T02:17:07.747Z,11.63
2022-07-31T02:19:59.651Z,11.10
2022-07-31T02:22:08.332Z,10.38
2022-07-31T02:24:16.701Z,11.35
2022-07-31T02:26:27.782Z,11.20
2022-07-31T02:28:38.795Z,11.00
2022-07-31T02:30:48.072Z,11.52
2022-07-31T02:32:59.795Z,10.65
2022-07-31T02:35:10.737Z,11.95
2022-07-31T02:37:19.624Z,12.68
2022-07-31T02:39:31.017Z,12.60
2022-07-31T02:41:40.007Z,12.23
2022-07-31T02:43:49.859Z,12.93
2022-07-31T02:46:03.240Z,12.35
2022-07-31T02:48:14.409Z,12.70
2022-07-31T02:50:32.093Z,13.80
2022-07-31T02:52:40.959Z,12.75
2022-07-31T02:54:49.983Z,14.18
2022-07-31T02:56:59.405Z,13.13
2022-07-31T02:59:07.472Z,14.02
2022-07-31T03:01:37.494Z,13.32
2022-07-31T03:03:50.341Z,13.23
2022-07-31T03:05:58.728Z,13.25
2022-07-31T03:08:07.536Z,13.23
2022-07-31T03:10:20.351Z,13.50
2022-07-31T03:12:49.107Z,13.15
2022-07-31T03:14:58.293Z,14.27
2022-07-31T03:17:10.117Z,14.50
2022-07-31T03:19:22.906Z,13.57
2022-07-31T03:21:33.561Z,14.43
2022-07-31T03:23:45.459Z,13.45
2022-07-31T03:26:00.596Z,16.13
2022-07-31T03:28:09.471Z,15.70
2022-07-31T03:30:25.268Z,14.95
2022-07-31T03:32:36.749Z,14.23
2022-07-31T03:34:47.792Z,15.40
2022-07-31T03:36:56.369Z,15.45
2022-07-31T03:39:05.397Z,15.65
2022-07-31T03:41:23.393Z,15.43
2022-07-31T03:43:47.532Z,15.20
2022-07-31T03:45:58.614Z,16.52
2022-07-31T03:48:08.691Z,15.55
2022-07-31T03:50:20.460Z,16.13
2022-07-31T03:52:30.221Z,14.68
2022-07-31T03:54:38.735Z,12.80
2022-07-31T03:56:59.881Z,13.80
2022-07-31T03:59:08.194Z,12.70
2022-07-31T04:01:20.758Z,13.13
2022-07-31T04:03:34.195Z,13.90
2022-07-31T04:06:01.958Z,12.85
2022-07-31T04:08:10.061Z,11.98
2022-07-31T04:10:20.093Z,12.77
2022-07-31T04:12:28.211Z,11.00
2022-07-31T04:14:36.253Z,12.10
2022-07-31T04:16:45.437Z,10.73
2022-07-31T04:18:54.006Z,11.35
2022-07-31T04:21:05.359Z,11.25
2022-07-31T04:23:13.514Z,10.80
2022-07-31T04:25:40.333Z,12.05
2022-07-31T04:28:08.879Z,10.57
2022-07-31T04:30:17.062Z,10.32
2022-07-31T04:32:26.600Z,10.93
2022-07-31T04:34:40.182Z,10.60
2022-07-31T04:36:51.026Z,9.73
2022-07-31T04:38:59.210Z,10.25
2022-07-31T04:41:07.615Z,9.50
2022-07-31T04:43:17.049Z,10.27
2022-07-31T04:45:25.664Z,9.55
2022-07-31T04:47:34.853Z,8.70
2022-07-31T04:49:43.436Z,8.40
2022-07-31T04:52:01.092Z,8.50
2022-07-31T04:54:10.019Z,7.97
2022-07-31T04:56:30.475Z,7.40
2022-07-31T04:58:38.691Z,7.55
2022-07-31T05:00:47.065Z,7.10
2022-07-31T05:03:00.411Z,6.43
2022-07-31T05:05:10.096Z,7.07
2022-07-31T05:07:27.853Z,6.63
2022-07-31T05:09:38.040Z,6.90
2022-07-31T05:11:49.290Z,6.77
2022-07-31T05:13:59.342Z,7.00
2022-07-31T05:16:07.919Z,7.10
2022-07-31T05:18:16.054Z,6.80
2022-07-31T05:20:43.127Z,7.17
2022-07-31T05:23:20.477Z,6.70
2022-07-31T05:25:37.907Z,6.63
2022-07-31T05:27:45.907Z,6.77
2022-07-31T05:29:58.697Z,6.90
2022-07-31T05:32:07.568Z,7.10
2022-07-31T05:34:18.231Z,6.63
2022-07-31T05:36:26.448Z,6.93
2022-07-31T05:38:37.279Z,6.90
2022-07-31T05:41:06.963Z,7.10
2022-07-31T05:43:43.516Z,6.97
2022-07-31T05:46:03.174Z,6.60
2022-07-31T05:48:11.135Z,7.20
2022-07-31T05:50:19.952Z,7.23
2022-07-31T05:52:28.304Z,7.25
2022-07-31T05:55:00.987Z,7.63
2022-07-31T05:57:09.527Z,7.75
2022-07-31T05:59:22.744Z,7.57
2022-07-31T06:01:31.653Z,7.70
2022-07-31T06:03:52.265Z,7.50
2022-07-31T06:06:16.976Z,7.90
2022-07-31T06:08:26.424Z,7.83
2022-07-31T06:10:38.866Z,7.32
2022-07-31T06:12:47.306Z,8.30
2022-07-31T06:14:55.680Z,8.88
2022-07-31T06:17:20.370Z,8.52
2022-07-31T06:19:32.262Z,8.70
2022-07-31T06:21:40.366Z,8.95
2022-07-31T06:23:48.841Z,8.68
2022-07-31T06:26:05.924Z,9.15
2022-07-31T06:28:14.051Z,7.88
2022-07-31T06:30:27.025Z,8.85
2022-07-31T06:32:35.932Z,8.20
2022-07-31T06:34:45.193Z,8.10
2022-07-31T06:36:53.734Z,8.40
2022-07-31T06:39:05.630Z,8.25
2022-07-31T06:41:47.401Z,8.00
2022-07-31T06:44:10.944Z,8.98
2022-07-31T06:46:49.186Z,8.48
2022-07-31T06:49:26.834Z,8.80
2022-07-31T06:51:35.354Z,7.72
2022-07-31T06:53:43.634Z,7.30
2022-07-31T06:55:52.464Z,7.22
2022-07-31T06:58:03.808Z,7.55
2022-07-31T07:00:20.369Z,8.38
2022-07-31T07:02:30.765Z,7.35
2022-07-31T07:05:04.389Z,7.63
2022-07-31T07:07:11.071Z,7.03
2022-07-31T07:09:19.213Z,7.75
2022-07-31T07:11:30.166Z,8.02
2022-07-31T07:13:46.414Z,7.15
2022-07-31T07:15:57.959Z,7.22
2022-07-31T07:18:08.998Z,7.38
2022-07-31T07:20:26.047Z,6.95
2022-07-31T07:22:34.908Z,6.85
2022-07-31T07:24:44.401Z,6.40
2022-07-31T07:27:00.348Z,6.60
2022-07-31T07:29:11.539Z,6.68
2022-07-31T07:31:19.805Z,6.67
2022-07-31T07:33:40.902Z,5.90
2022-07-31T07:35:56.517Z,5.73
2022-07-31T07:38:04.657Z,6.27
2022-07-31T07:40:15.077Z,6.43
2022-07-31T07:42:23.569Z,5.87
2022-07-31T07:44:34.748Z,5.40
2022-07-31T07:46:43.116Z,5.33
2022-07-31T07:48:55.540Z,5.53
2022-07-31T07:51:27.765Z,5.67
2022-07-31T07:53:42.530Z,5.37
2022-07-31T07:56:09.381Z,5.80
2022-07-31T07:58:46.297Z,5.80
2022-07-31T08:01:17.952Z,6.20
2022-07-31T08:03:48.619Z,6.30
2022-07-31T08:05:58.866Z,5.73
2022-07-31T08:08:07.826Z,5.60
2022-07-31T08:10:25.259Z,6.67
2022-07-31T08:12:49.058Z,5.87
2022-07-31T08:15:17.632Z,6.00
2022-07-31T08:17:48.851Z,6.10
2022-07-31T08:19:58.410Z,6.03
2022-07-31T08:22:07.147Z,6.20
2022-07-31T08:24:17.113Z,5.53
2022-07-31T08:26:28.163Z,6.70
2022-07-31T08:28:37.695Z,6.20
2022-07-31T08:30:46.589Z,6.50
2022-07-31T08:33:01.141Z,6.47
2022-07-31T08:35:29.799Z,5.97
2022-07-31T08:37:52.521Z,5.80
2022-07-31T08:40:10.336Z,6.80
2022-07-31T08:42:21.887Z,5.90
2022-07-31T08:44:31.452Z,6.40
2022-07-31T08:46:42.118Z,6.23
2022-07-31T08:48:55.145Z,5.50
2022-07-31T08:51:06.718Z,5.30
2022-07-31T08:53:39.534Z,5.50
2022-07-31T08:55:57.683Z,6.33
2022-07-31T08:58:10.042Z,5.63
2022-07-31T09:00:21.738Z,5.67
2022-07-31T09:02:29.796Z,5.90
2022-07-31T09:05:05.279Z,6.50
2022-07-31T09:07:17.892Z,5.60
2022-07-31T09:09:26.105Z,5.30
2022-07-31T09:11:55.370Z,5.80
2022-07-31T09:14:30.333Z,5.50
2022-07-31T09:16:52.572Z,5.60
2022-07-31T09:19:53.381Z,6.00
2022-07-31T09:21:45.987Z,4.70
2022-07-31T09:23:54.603Z,4.70
2022-07-31T09:26:05.578Z,5.20
2022-07-31T09:28:14.665Z,5.10
2022-07-31T09:30:22.975Z,5.10
2022-07-31T09:33:17.197Z,4.90
2022-07-31T09:35:50.286Z,4.73
2022-07-31T09:38:03.128Z,4.90
2022-07-31T09:40:55.338Z,4.80
2022-07-31T09:43:33.109Z,4.30
2022-07-31T09:46:00.709Z,5.00
2022-07-31T09:48:16.163Z,3.97
2022-07-31T09:50:34.882Z,3.97
2022-07-31T09:52:43.379Z,5.50
2022-07-31T09:55:16.165Z,4.03
2022-07-31T09:57:25.980Z,4.10
2022-07-31T09:59:37.307Z,4.30
2022-07-31T10:01:46.743Z,4.37
2022-07-31T10:03:59.106Z,4.10
2022-07-31T10:06:08.747Z,3.93
2022-07-31T10:08:20.475Z,4.07
2022-07-31T10:11:04.775Z,3.70
2022-07-31T10:13:28.526Z,3.90
2022-07-31T10:15:39.470Z,4.13
2022-07-31T10:18:08.875Z,4.00
2022-07-31T10:20:31.833Z,3.80
2022-07-31T10:22:51.525Z,3.80
2022-07-31T10:25:04.952Z,3.97
2022-07-31T10:27:19.084Z,3.70
2022-07-31T10:29:35.063Z,4.13
2022-07-31T10:31:45.846Z,3.53
2022-07-31T10:33:56.957Z,4.07
2022-07-31T10:36:28.742Z,3.80
2022-07-31T10:39:19.170Z,3.90
2022-07-31T10:41:49.626Z,3.60
2022-07-31T10:44:06.629Z,4.23
2022-07-31T10:46:50.554Z,4.50
2022-07-31T10:49:08.818Z,3.40
2022-07-31T10:51:35.730Z,3.50
2022-07-31T10:54:01.962Z,3.50
2022-07-31T10:56:46.362Z,3.73
2022-07-31T10:59:31.259Z,3.70
2022-07-31T11:02:08.133Z,3.63
2022-07-31T11:04:30.706Z,3.50
2022-07-31T11:06:59.255Z,3.40
2022-07-31T11:09:32.579Z,3.37
2022-07-31T11:12:21.234Z,3.83
2022-07-31T11:14:43.976Z,3.77
2022-07-31T11:17:10.828Z,3.63
2022-07-31T11:19:26.168Z,3.50
2022-07-31T11:21:39.891Z,3.30
2022-07-31T11:24:02.292Z,3.70
2022-07-31T11:26:13.682Z,3.60
2022-07-31T11:28:24.912Z,3.90
2022-07-31T11:30:35.870Z,4.03
2022-07-31T11:32:44.234Z,3.93
2022-07-31T11:35:05.320Z,3.70
2022-07-31T11:37:22.906Z,3.97
2022-07-31T11:39:36.808Z,3.87
2022-07-31T11:41:45.622Z,3.60
2022-07-31T11:43:57.561Z,3.83
2022-07-31T11:46:08.875Z,4.13
2022-07-31T11:48:27.198Z,4.00
2022-07-31T11:50:42.806Z,5.10
2022-07-31T11:52:50.927Z,4.60
2022-07-31T11:55:09.470Z,6.00
2022-07-31T11:57:18.303Z,4.67
2022-07-31T11:59:45.320Z,3.33
2022-07-31T12:01:57.283Z,12.43
2022-07-31T12:04:08.865Z,4.40
2022-07-31T12:06:22.410Z,4.50
2022-07-31T12:08:33.344Z,3.70
2022-07-31T12:10:42.819Z,4.07
2022-07-31T12:12:51.559Z,4.10
2022-07-31T12:14:59.977Z,4.43
2022-07-31T12:17:10.779Z,3.87
2022-07-31T12:19:29.630Z,3.80
2022-07-31T12:21:47.021Z,3.17
2022-07-31T12:23:55.839Z,3.97
2022-07-31T12:26:04.104Z,4.70
2022-07-31T12:28:13.247Z,4.10
2022-07-31T12:30:29.625Z,4.37
2022-07-31T12:32:44.338Z,4.00
2022-07-31T12:34:53.097Z,4.03
2022-07-31T12:37:05.551Z,4.30
2022-07-31T12:39:20.515Z,5.00
2022-07-31T12:41:28.721Z,4.20
2022-07-31T12:43:37.238Z,4.43
2022-07-31T12:45:45.244Z,3.43
2022-07-31T12:47:57.754Z,3.43
2022-07-31T12:50:06.060Z,3.73
2022-07-31T12:52:14.121Z,3.80
2022-07-31T12:54:22.263Z,4.10
2022-07-31T12:56:30.451Z,3.93
2022-07-31T12:58:38.475Z,3.83
2022-07-31T13:00:46.825Z,3.50
2022-07-31T13:02:59.623Z,3.97
2022-07-31T13:05:08.926Z,4.07
2022-07-31T13:07:18.050Z,3.67
2022-07-31T13:09:26.537Z,3.60
2022-07-31T13:11:46.565Z,3.70
2022-07-31T13:13:59.499Z,2.97
2022-07-31T13:16:08.341Z,3.87
2022-07-31T13:18:19.241Z,3.47
2022-07-31T13:20:27.665Z,3.40
2022-07-31T13:22:35.584Z,3.70
2022-07-31T13:24:44.261Z,3.47
2022-07-31T13:26:53.741Z,3.40
2022-07-31T13:29:02.270Z,3.50
2022-07-31T13:31:10.386Z,4.10
2022-07-31T13:33:21.246Z,4.37
2022-07-31T13:35:29.756Z,4.03
2022-07-31T13:37:38.566Z,4.10
2022-07-31T13:39:47.444Z,4.40
2022-07-31T13:41:56.101Z,3.60
2022-07-31T13:44:05.860Z,3.63
2022-07-31T13:46:14.070Z,3.80
2022-07-31T13:48:24.914Z,3.70
2022-07-31T13:50:33.644Z,3.50
2022-07-31T13:52:43.637Z,3.83
2022-07-31T13:54:55.311Z,3.77
2022-07-31T13:57:07.148Z,4.47
2022-07-31T13:59:18.359Z,3.97
2022-07-31T14:02:04.829Z,3.60
2022-07-31T14:04:02.184Z,3.50
2022-07-31T14:06:12.445Z,3.50
2022-07-31T14:08:30.210Z,3.43
2022-07-31T14:10:54.137Z,3.90
2022-07-31T14:13:02.964Z,3.27
2022-07-31T14:15:11.987Z,3.70
2022-07-31T14:17:20.905Z,3.47
2022-07-31T14:19:41.957Z,3.80
2022-07-31T14:21:56.944Z,3.50
2022-07-31T14:24:06.617Z,3.70
2022-07-31T14:26:20.065Z,3.10
2022-07-31T14:28:31.322Z,3.70
2022-07-31T14:30:49.760Z,3.10
2022-07-31T14:32:58.144Z,3.63
2022-07-31T14:35:10.913Z,3.60
2022-07-31T14:37:20.122Z,3.00
2022-07-31T14:39:28.064Z,3.47
2022-07-31T14:41:45.699Z,3.30
2022-07-31T14:43:57.911Z,3.43
2022-07-31T14:46:08.231Z,3.57
2022-07-31T14:48:16.438Z,3.60
2022-07-31T14:50:31.678Z,3.10
2022-07-31T14:52:39.819Z,3.60
2022-07-31T14:54:49.474Z,2.80
2022-07-31T14:57:01.424Z,3.63
2022-07-31T14:59:12.231Z,3.13
2022-07-31T15:01:22.679Z,3.63
2022-07-31T15:03:35.112Z,3.60
2022-07-31T15:06:50.797Z,3.03
2022-07-31T15:08:14.571Z,3.13
2022-07-31T15:10:24.413Z,3.50
2022-07-31T15:12:32.757Z,3.13
2022-07-31T15:14:41.644Z,3.70
2022-07-31T15:16:50.038Z,3.57
2022-07-31T15:18:59.778Z,3.07
2022-07-31T15:21:18.112Z,2.67
2022-07-31T15:23:26.409Z,3.13
2022-07-31T15:25:43.999Z,3.47
2022-07-31T15:27:52.694Z,3.03
2022-07-31T15:30:06.727Z,3.50
2022-07-31T15:32:16.150Z,2.73
2022-07-31T15:34:25.000Z,3.30
2022-07-31T15:36:35.832Z,3.37
2022-07-31T15:38:44.108Z,3.20
2022-07-31T15:40:52.980Z,3.70
2022-07-31T15:43:01.971Z,3.30
2022-07-31T15:45:12.382Z,3.50
2022-07-31T15:47:20.871Z,3.40
2022-07-31T15:49:29.132Z,3.77
2022-07-31T15:51:54.629Z,3.50
2022-07-31T15:54:03.422Z,3.07
2022-07-31T15:56:11.742Z,3.07
2022-07-31T15:58:20.251Z,3.60
2022-07-31T16:00:29.183Z,4.37
2022-07-31T16:02:37.680Z,3.47
2022-07-31T16:04:51.513Z,3.50
2022-07-31T16:08:31.806Z,3.30
2022-07-31T16:09:34.290Z,3.33
2022-07-31T16:12:04.961Z,3.83
2022-07-31T16:14:12.932Z,3.30
2022-07-31T16:16:22.602Z,3.20
2022-07-31T16:18:30.921Z,4.00
2022-07-31T16:20:39.360Z,3.77
2022-07-31T16:22:54.304Z,3.70
2022-07-31T16:25:04.607Z,3.20
2022-07-31T16:27:13.073Z,2.97
2022-07-31T16:29:57.826Z,3.30
2022-07-31T16:31:51.170Z,3.50
2022-07-31T16:34:00.037Z,3.40
2022-07-31T16:36:09.067Z,3.43
2022-07-31T16:38:22.061Z,3.20
2022-07-31T16:40:32.186Z,3.20
2022-07-31T16:42:40.900Z,3.63
2022-07-31T16:44:54.580Z,3.60
2022-07-31T16:47:03.301Z,3.70
2022-07-31T16:49:35.655Z,3.73
2022-07-31T16:51:40.226Z,3.43
2022-07-31T16:54:13.348Z,3.60
2022-07-31T16:56:19.852Z,3.60
2022-07-31T16:58:28.295Z,3.93
2022-07-31T17:00:36.818Z,3.50
2022-07-31T17:02:45.365Z,3.57
2022-07-31T17:04:54.219Z,3.50
2022-07-31T17:07:02.938Z,3.70
2022-07-31T17:09:18.580Z,3.17
2022-07-31T17:11:27.084Z,3.83
2022-07-31T17:13:35.790Z,3.60
2022-07-31T17:15:45.061Z,3.57
2022-07-31T17:17:53.382Z,3.23
2022-07-31T17:20:01.943Z,3.70
2022-07-31T17:22:11.276Z,4.07
2022-07-31T17:24:22.954Z,3.17
2022-07-31T17:26:32.402Z,3.57
2022-07-31T17:28:40.589Z,3.53
2022-07-31T17:30:49.215Z,3.53
2022-07-31T17:32:57.736Z,3.30
2022-07-31T17:35:08.433Z,3.70
2022-07-31T17:37:22.459Z,3.67
2022-07-31T17:39:33.755Z,3.77
2022-07-31T17:41:42.118Z,3.40
2022-07-31T17:43:53.447Z,4.03
2022-07-31T17:46:09.525Z,3.60
2022-07-31T17:48:25.798Z,3.70
2022-07-31T17:50:34.172Z,3.93
2022-07-31T17:52:42.771Z,4.30
2022-07-31T17:54:56.173Z,4.00
2022-07-31T17:57:04.699Z,4.00
2022-07-31T17:59:13.194Z,3.87
2022-07-31T18:01:27.054Z,4.00
2022-07-31T18:03:36.776Z,3.77
2022-07-31T18:05:45.048Z,4.40
2022-07-31T18:07:53.403Z,4.03
2022-07-31T18:10:04.671Z,3.67
2022-07-31T18:12:15.667Z,3.60
2022-07-31T18:14:25.008Z,4.07
2022-07-31T18:16:33.742Z,4.13
2022-07-31T18:18:42.295Z,3.97
2022-07-31T18:20:50.631Z,4.00
2022-07-31T18:22:58.997Z,3.80
2022-07-31T18:25:12.795Z,3.60
2022-07-31T18:27:21.172Z,4.00
2022-07-31T18:29:29.487Z,3.53
2022-07-31T18:31:37.793Z,3.97
2022-07-31T18:33:46.478Z,4.30
2022-07-31T18:35:54.813Z,3.70
2022-07-31T18:38:03.331Z,4.00
2022-07-31T18:40:15.268Z,3.97
2022-07-31T18:42:24.373Z,3.80
2022-07-31T18:44:32.751Z,4.30
2022-07-31T18:46:43.829Z,4.03
2022-07-31T18:48:55.356Z,3.90
2022-07-31T18:51:07.413Z,3.67
2022-07-31T18:53:16.975Z,4.10
2022-07-31T18:55:31.217Z,4.30
2022-07-31T18:57:39.842Z,4.03
2022-07-31T18:59:48.783Z,4.50
2022-07-31T19:01:57.458Z,3.80
2022-07-31T19:04:06.084Z,4.37
2022-07-31T19:06:15.757Z,4.03
2022-07-31T19:08:27.342Z,3.93
2022-07-31T19:10:38.053Z,4.07
2022-07-31T19:12:46.262Z,3.70
2022-07-31T19:14:54.506Z,3.87
2022-07-31T19:17:04.103Z,3.83
2022-07-31T19:19:12.640Z,4.00
2022-07-31T19:21:42.743Z,4.00
2022-07-31T19:23:50.598Z,3.87
2022-07-31T19:26:03.573Z,3.80
2022-07-31T19:28:15.182Z,4.00
2022-07-31T19:30:24.665Z,3.87
2022-07-31T19:32:33.359Z,4.00
2022-07-31T19:34:42.214Z,3.83
2022-07-31T19:36:57.624Z,4.17
2022-07-31T19:39:06.307Z,3.77
2022-07-31T19:41:17.309Z,3.93
2022-07-31T19:43:26.243Z,3.87
2022-07-31T19:45:35.992Z,4.13
2022-07-31T19:48:04.405Z,4.20
2022-07-31T19:50:14.099Z,4.63
2022-07-31T19:52:22.765Z,4.50
2022-07-31T19:54:31.301Z,5.17
2022-07-31T19:56:42.333Z,5.20
2022-07-31T19:58:50.761Z,5.00
2022-07-31T20:00:59.062Z,5.40
2022-07-31T20:03:08.239Z,5.15
2022-07-31T20:05:16.716Z,5.00
2022-07-31T20:07:28.589Z,4.70
2022-07-31T20:09:39.123Z,3.73
2022-07-31T20:11:50.401Z,3.63
2022-07-31T20:14:01.062Z,3.05
2022-07-31T20:16:09.718Z,3.30
2022-07-31T20:18:26.970Z,3.10
2022-07-31T20:20:36.781Z,2.88
2022-07-31T20:22:45.759Z,2.40
2022-07-31T20:24:55.230Z,2.60
2022-07-31T20:27:06.007Z,2.50
2022-07-31T20:29:14.461Z,2.90
2022-07-31T20:31:22.758Z,3.00
2022-07-31T20:33:31.051Z,2.45
2022-07-31T20:35:48.397Z,2.30
2022-07-31T20:37:59.594Z,2.55
2022-07-31T20:40:10.027Z,2.45
2022-07-31T20:42:21.100Z,2.45
2022-07-31T20:44:31.970Z,2.92
2022-07-31T20:46:40.801Z,2.90
2022-07-31T20:48:50.413Z,3.22
2022-07-31T20:50:58.896Z,3.40
2022-07-31T20:53:08.727Z,2.97
2022-07-31T20:55:17.332Z,2.97
2022-07-31T20:57:28.406Z,2.90
2022-07-31T20:59:36.752Z,3.70
2022-07-31T21:01:45.050Z,3.00
2022-07-31T21:03:55.179Z,3.20
2022-07-31T21:06:03.702Z,3.03
2022-07-31T21:08:15.598Z,3.50
2022-07-31T21:10:24.167Z,3.70
2022-07-31T21:12:35.021Z,3.78
2022-07-31T21:14:43.895Z,3.25
2022-07-31T21:16:52.917Z,3.10
2022-07-31T21:19:01.607Z,3.40
2022-07-31T21:21:09.845Z,3.10
2022-07-31T21:23:19.638Z,3.60
2022-07-31T21:25:28.365Z,3.40
2022-07-31T21:27:40.051Z,2.80
2022-07-31T21:29:48.962Z,3.50
2022-07-31T21:31:58.129Z,2.90
2022-07-31T21:34:07.631Z,2.83
2022-07-31T21:36:17.517Z,2.90
2022-07-31T21:38:26.998Z,2.83
2022-07-31T21:40:39.011Z,2.95
2022-07-31T21:42:55.176Z,2.75
2022-07-31T21:45:07.444Z,2.95
2022-07-31T21:47:17.413Z,2.65
2022-07-31T21:49:33.845Z,2.80
2022-07-31T21:51:43.148Z,2.80
2022-07-31T21:53:51.496Z,3.00
2022-07-31T21:56:04.118Z,3.20
2022-07-31T21:58:15.436Z,2.90
2022-07-31T22:00:28.284Z,3.03
2022-07-31T22:02:38.403Z,2.88
2022-07-31T22:05:00.672Z,3.60
2022-07-31T22:07:21.334Z,3.42
2022-07-31T22:09:29.907Z,2.85
2022-07-31T22:11:38.566Z,2.90
2022-07-31T22:13:49.629Z,2.70
2022-07-31T22:16:01.345Z,2.90
2022-07-31T22:18:10.558Z,3.22
2022-07-31T22:20:21.849Z,3.00
2022-07-31T22:22:33.076Z,3.10
2022-07-31T22:24:42.872Z,3.10
2022-07-31T22:27:05.820Z,2.72
2022-07-31T22:29:19.367Z,3.20
2022-07-31T22:31:28.293Z,3.55
2022-07-31T22:33:37.040Z,3.63
2022-07-31T22:35:59.475Z,3.25
2022-07-31T22:38:09.256Z,3.25
2022-07-31T22:40:19.809Z,3.33
2022-07-31T22:42:28.799Z,3.50
2022-07-31T22:44:40.487Z,3.35
2022-07-31T22:46:49.207Z,3.22
2022-07-31T22:48:59.038Z,3.05
2022-07-31T22:51:07.935Z,3.60
2022-07-31T22:53:16.899Z,3.08
2022-07-31T22:55:25.378Z,3.40
2022-07-31T22:57:35.271Z,3.50
2022-07-31T22:59:47.765Z,3.08
2022-07-31T23:01:56.451Z,3.72
2022-07-31T23:04:04.757Z,3.55
2022-07-31T23:06:31.739Z,3.17
2022-07-31T23:08:41.009Z,3.08
2022-07-31T23:10:49.771Z,3.72
2022-07-31T23:12:58.266Z,3.20
2022-07-31T23:15:10.662Z,3.13
2022-07-31T23:17:22.285Z,3.58
2022-07-31T23:19:32.590Z,3.00
2022-07-31T23:21:41.057Z,2.95
2022-07-31T23:23:49.690Z,3.53
2022-07-31T23:25:58.410Z,3.30
2022-07-31T23:28:07.136Z,3.00
2022-07-31T23:30:18.366Z,3.10
2022-07-31T23:32:26.731Z,3.30
2022-07-31T23:34:36.700Z,3.58
2022-07-31T23:36:46.072Z,3.38
2022-07-31T23:38:54.638Z,2.80
2022-07-31T23:41:03.036Z,3.70
2022-07-31T23:43:08.933Z,3.15
2022-07-31T23:45:20.352Z,2.97
2022-07-31T23:47:44.682Z,3.20
2022-07-31T23:49:55.145Z,3.33
2022-07-31T23:52:04.076Z,3.53
2022-07-31T23:54:12.990Z,3.65
2022-07-31T23:56:21.436Z,3.20
2022-07-31T23:58:31.785Z,4.03
